createdAt,value
2018-04-02T00:00:12.544Z,2.97
2018-04-02T00:01:12.572Z,2.93
2018-04-02T00:02:12.596Z,2.84
2018-04-02T00:03:12.622Z,2.79
2018-04-02T00:04:12.648Z,2.72
2018-04-02T00:05:12.674Z,2.81
2018-04-02T00:06:12.700Z,2.77
2018-04-02T00:07:12.728Z,2.79
2018-04-02T00:08:12.760Z,2.75
2018-04-02T00:09:12.779Z,2.72
2018-04-02T00:10:12.803Z,2.74
2018-04-02T00:11:12.829Z,2.64
2018-04-02T00:12:12.856Z,2.67
2018-04-02T00:13:12.881Z,2.78
2018-04-02T00:14:12.908Z,2.84
2018-04-02T00:15:12.932Z,2.93
2018-04-02T00:16:12.958Z,2.93
2018-04-02T00:17:12.988Z,2.90
2018-04-02T00:18:13.011Z,2.82
2018-04-02T00:19:13.037Z,2.92
2018-04-02T00:20:13.063Z,2.82
2018-04-02T00:21:13.088Z,2.87
2018-04-02T00:22:13.115Z,2.93
2018-04-02T00:23:13.140Z,2.97
2018-04-02T00:24:13.165Z,2.79
2018-04-02T00:25:13.200Z,2.61
2018-04-02T00:26:13.224Z,2.52
2018-04-02T00:27:13.244Z,2.46
2018-04-02T00:28:13.270Z,2.52
2018-04-02T00:29:13.302Z,2.66
2018-04-02T00:30:13.321Z,2.66
2018-04-02T00:31:13.347Z,2.64
2018-04-02T00:32:13.373Z,2.71
2018-04-02T00:33:13.399Z,2.75
2018-04-02T00:34:13.425Z,2.78
2018-04-02T00:35:13.452Z,2.74
2018-04-02T00:36:13.477Z,2.82
2018-04-02T00:37:13.503Z,2.77
2018-04-02T00:38:13.528Z,2.71
2018-04-02T00:39:13.554Z,2.79
2018-04-02T00:40:13.579Z,2.72
2018-04-02T00:41:13.605Z,2.67
2018-04-02T00:42:13.630Z,2.77
2018-04-02T00:43:13.655Z,2.60
2018-04-02T00:44:13.683Z,2.53
2018-04-02T00:45:13.708Z,2.43
2018-04-02T00:46:13.734Z,2.41
2018-04-02T00:47:13.759Z,2.41
2018-04-02T00:48:13.785Z,2.46
2018-04-02T00:49:13.810Z,2.42
2018-04-02T00:50:13.838Z,2.27
2018-04-02T00:51:13.864Z,2.28
2018-04-02T00:52:13.893Z,2.31
2018-04-02T00:53:13.916Z,2.28
2018-04-02T00:54:13.941Z,2.23
2018-04-02T00:55:13.966Z,2.25
2018-04-02T00:56:13.993Z,2.23
2018-04-02T00:57:14.017Z,2.27
2018-04-02T00:58:14.044Z,2.30
2018-04-02T00:59:14.067Z,2.27
2018-04-02T01:00:14.095Z,2.30
2018-04-02T01:01:14.124Z,2.28
2018-04-02T01:02:14.147Z,2.30
2018-04-02T01:03:14.173Z,2.24
2018-04-02T01:04:14.198Z,2.25
2018-04-02T01:05:14.245Z,2.28
2018-04-02T01:06:14.250Z,2.27
2018-04-02T01:07:14.275Z,2.31
2018-04-02T01:08:14.301Z,2.21
2018-04-02T01:09:14.326Z,2.27
2018-04-02T01:10:14.353Z,2.24
2018-04-02T01:11:14.378Z,2.30
2018-04-02T01:12:14.405Z,2.28
2018-04-02T01:13:14.428Z,2.35
2018-04-02T01:14:14.460Z,2.28
2018-04-02T01:15:14.487Z,2.38
2018-04-02T01:16:14.506Z,2.27
2018-04-02T01:17:14.531Z,2.27
2018-04-02T01:18:14.558Z,2.14
2018-04-02T01:19:14.583Z,2.10
2018-04-02T01:20:14.607Z,2.12
2018-04-02T01:21:14.634Z,2.07
2018-04-02T01:22:14.660Z,2.05
2018-04-02T01:23:14.685Z,2.03
2018-04-02T01:24:14.711Z,2.12
2018-04-02T01:25:14.737Z,2.12
2018-04-02T01:26:14.762Z,2.09
2018-04-02T01:27:14.789Z,2.16
2018-04-02T01:28:14.814Z,2.16
2018-04-02T01:29:14.838Z,2.02
2018-04-02T01:30:14.865Z,2.07
2018-04-02T01:31:14.892Z,2.18
2018-04-02T01:32:14.921Z,2.14
2018-04-02T01:33:14.941Z,2.16
2018-04-02T01:34:14.972Z,2.14
2018-04-02T01:35:14.992Z,2.12
2018-04-02T01:36:15.016Z,1.99
2018-04-02T01:37:15.042Z,1.88
2018-04-02T01:38:15.068Z,1.95
2018-04-02T01:39:15.093Z,1.90
2018-04-02T01:40:15.120Z,1.93
2018-04-02T01:41:15.146Z,1.88
2018-04-02T01:42:15.169Z,2.17
2018-04-02T01:43:15.195Z,2.16
2018-04-02T01:44:15.220Z,2.16
2018-04-02T01:45:15.247Z,2.16
2018-04-02T01:46:15.272Z,2.30
2018-04-02T01:47:15.297Z,2.21
2018-04-02T01:48:15.322Z,2.25
2018-04-02T01:49:15.349Z,2.12
2018-04-02T01:50:15.374Z,2.07
2018-04-02T01:51:15.399Z,2.12
2018-04-02T01:52:15.425Z,2.14
2018-04-02T01:53:15.449Z,2.10
2018-04-02T01:54:15.476Z,1.98
2018-04-02T01:55:15.500Z,1.98
2018-04-02T01:56:15.526Z,1.93
2018-04-02T01:57:15.555Z,1.93
2018-04-02T01:58:15.577Z,1.93
2018-04-02T01:59:15.602Z,1.87
2018-04-02T02:00:15.627Z,1.87
2018-04-02T02:01:15.656Z,1.91
2018-04-02T02:02:15.679Z,1.86
2018-04-02T02:03:15.703Z,1.87
2018-04-02T02:04:15.730Z,1.84
2018-04-02T02:05:15.754Z,1.93
2018-04-02T02:06:15.780Z,1.93
2018-04-02T02:07:15.812Z,1.87
2018-04-02T02:08:15.831Z,1.86
2018-04-02T02:09:15.858Z,1.90
2018-04-02T02:10:15.883Z,1.87
2018-04-02T02:11:15.909Z,1.90
2018-04-02T02:12:15.934Z,1.87
2018-04-02T02:13:15.960Z,1.81
2018-04-02T02:14:15.990Z,1.80
2018-04-02T02:15:16.010Z,1.84
2018-04-02T02:16:16.036Z,1.84
2018-04-02T02:17:16.063Z,1.84
2018-04-02T02:18:16.089Z,1.81
2018-04-02T02:19:16.111Z,1.83
2018-04-02T02:20:16.139Z,1.87
2018-04-02T02:21:16.165Z,1.84
2018-04-02T02:22:16.191Z,1.83
2018-04-02T02:23:16.215Z,1.84
2018-04-02T02:24:16.241Z,1.88
2018-04-02T02:25:16.267Z,1.83
2018-04-02T02:26:16.293Z,1.81
2018-04-02T02:27:16.316Z,1.91
2018-04-02T02:28:16.343Z,1.88
2018-04-02T02:29:16.369Z,1.93
2018-04-02T02:30:16.398Z,1.88
2018-04-02T02:31:16.423Z,1.91
2018-04-02T02:32:16.448Z,1.84
2018-04-02T02:33:16.472Z,1.84
2018-04-02T02:34:16.497Z,1.86
2018-04-02T02:35:16.523Z,1.90
2018-04-02T02:36:16.549Z,1.76
2018-04-02T02:37:16.574Z,1.66
2018-04-02T02:38:16.598Z,1.63
2018-04-02T02:39:16.625Z,1.70
2018-04-02T02:40:16.649Z,1.73
2018-04-02T02:41:16.676Z,1.65
2018-04-02T02:42:16.701Z,1.72
2018-04-02T02:43:16.741Z,1.80
2018-04-02T02:44:16.754Z,1.63
2018-04-02T02:45:16.778Z,1.72
2018-04-02T02:46:16.805Z,1.76
2018-04-02T02:47:16.831Z,1.77
2018-04-02T02:48:16.855Z,1.83
2018-04-02T02:49:16.880Z,1.83
2018-04-02T02:50:16.911Z,2.00
2018-04-02T02:51:16.931Z,2.02
2018-04-02T02:52:16.957Z,2.05
2018-04-02T02:53:16.984Z,2.10
2018-04-02T02:54:17.009Z,2.14
2018-04-02T02:55:17.032Z,2.16
2018-04-02T02:56:17.059Z,2.05
2018-04-02T02:57:17.085Z,2.02
2018-04-02T02:58:17.110Z,2.00
2018-04-02T02:59:17.135Z,1.86
2018-04-02T03:00:17.159Z,1.79
2018-04-02T03:01:17.187Z,1.81
2018-04-02T03:02:17.215Z,1.79
2018-04-02T03:03:17.282Z,1.87
2018-04-02T03:04:17.262Z,1.80
2018-04-02T03:05:17.290Z,1.65
2018-04-02T03:06:17.314Z,1.83
2018-04-02T03:07:17.337Z,1.76
2018-04-02T03:08:17.365Z,1.69
2018-04-02T03:09:17.390Z,1.68
2018-04-02T03:10:17.415Z,1.65
2018-04-02T03:11:17.439Z,1.66
2018-04-02T03:12:17.465Z,1.62
2018-04-02T03:13:17.491Z,1.68
2018-04-02T03:14:17.518Z,1.66
2018-04-02T03:15:17.541Z,1.63
2018-04-02T03:16:17.567Z,1.66
2018-04-02T03:17:17.593Z,1.68
2018-04-02T03:18:17.618Z,1.66
2018-04-02T03:19:17.645Z,1.69
2018-04-02T03:20:17.667Z,1.72
2018-04-02T03:21:17.694Z,1.65
2018-04-02T03:22:17.725Z,1.66
2018-04-02T03:23:17.744Z,1.65
2018-04-02T03:24:17.776Z,1.60
2018-04-02T03:25:17.796Z,1.79
2018-04-02T03:26:17.821Z,1.90
2018-04-02T03:27:17.848Z,1.84
2018-04-02T03:28:17.875Z,1.81
2018-04-02T03:29:17.897Z,1.83
2018-04-02T03:30:17.923Z,1.88
2018-04-02T03:31:17.948Z,1.98
2018-04-02T03:32:17.973Z,1.90
2018-04-02T03:33:17.997Z,1.90
2018-04-02T03:34:18.024Z,1.95
2018-04-02T03:35:18.049Z,1.93
2018-04-02T03:36:18.075Z,1.93
2018-04-02T03:37:18.100Z,1.90
2018-04-02T03:38:18.125Z,1.80
2018-04-02T03:39:18.155Z,1.87
2018-04-02T03:40:18.175Z,1.81
2018-04-02T03:41:18.202Z,1.80
2018-04-02T03:42:18.225Z,1.79
2018-04-02T03:43:18.252Z,1.76
2018-04-02T03:44:18.277Z,1.66
2018-04-02T03:45:18.302Z,1.73
2018-04-02T03:46:18.333Z,1.63
2018-04-02T03:47:18.354Z,1.60
2018-04-02T03:48:18.378Z,1.58
2018-04-02T03:49:18.403Z,1.60
2018-04-02T03:50:18.429Z,1.50
2018-04-02T03:51:18.452Z,1.47
2018-04-02T03:52:18.479Z,1.50
2018-04-02T03:53:18.504Z,1.47
2018-04-02T03:54:18.530Z,1.40
2018-04-02T03:55:18.554Z,1.45
2018-04-02T03:56:18.580Z,1.59
2018-04-02T03:57:18.605Z,1.54
2018-04-02T03:58:18.631Z,1.72
2018-04-02T03:59:18.657Z,1.69
2018-04-02T04:00:18.681Z,1.68
2018-04-02T04:01:18.706Z,1.63
2018-04-02T04:02:18.732Z,1.68
2018-04-02T04:03:18.756Z,1.65
2018-04-02T04:04:18.781Z,1.63
2018-04-02T04:05:18.807Z,1.63
2018-04-02T04:06:18.834Z,1.59
2018-04-02T04:07:18.857Z,1.51
2018-04-02T04:08:18.881Z,1.45
2018-04-02T04:09:18.908Z,1.44
2018-04-02T04:10:18.932Z,1.40
2018-04-02T04:11:18.957Z,1.44
2018-04-02T04:12:18.983Z,1.48
2018-04-02T04:13:19.012Z,1.52
2018-04-02T04:14:19.034Z,1.55
2018-04-02T04:15:19.059Z,1.48
2018-04-02T04:16:19.083Z,1.58
2018-04-02T04:17:19.109Z,1.63
2018-04-02T04:18:19.134Z,1.51
2018-04-02T04:19:19.158Z,1.47
2018-04-02T04:20:19.183Z,1.41
2018-04-02T04:21:19.210Z,1.37
2018-04-02T04:22:19.234Z,1.36
2018-04-02T04:23:19.258Z,1.50
2018-04-02T04:24:19.283Z,1.36
2018-04-02T04:25:19.308Z,1.47
2018-04-02T04:26:19.334Z,1.58
2018-04-02T04:27:19.358Z,1.51
2018-04-02T04:28:19.383Z,1.63
2018-04-02T04:29:19.408Z,1.59
2018-04-02T04:30:19.434Z,1.65
2018-04-02T04:31:19.465Z,1.69
2018-04-02T04:32:19.487Z,1.66
2018-04-02T04:33:19.512Z,1.73
2018-04-02T04:34:19.534Z,1.68
2018-04-02T04:35:19.560Z,1.65
2018-04-02T04:36:19.583Z,1.54
2018-04-02T04:37:19.608Z,1.68
2018-04-02T04:38:19.634Z,1.54
2018-04-02T04:39:19.659Z,1.51
2018-04-02T04:40:19.694Z,1.47
2018-04-02T04:41:19.709Z,1.51
2018-04-02T04:42:19.734Z,1.55
2018-04-02T04:43:19.759Z,1.48
2018-04-02T04:44:19.788Z,1.45
2018-04-02T04:45:19.810Z,1.41
2018-04-02T04:46:19.834Z,1.51
2018-04-02T04:47:19.858Z,1.40
2018-04-02T04:48:19.884Z,1.36
2018-04-02T04:49:19.908Z,1.42
2018-04-02T04:50:19.933Z,1.36
2018-04-02T04:51:19.960Z,1.34
2018-04-02T04:52:19.982Z,1.42
2018-04-02T04:53:20.008Z,1.33
2018-04-02T04:54:20.033Z,1.29
2018-04-02T04:55:20.058Z,1.37
2018-04-02T04:56:20.086Z,1.27
2018-04-02T04:57:20.108Z,1.44
2018-04-02T04:58:20.132Z,1.37
2018-04-02T04:59:20.162Z,1.40
2018-04-02T05:00:20.191Z,1.34
2018-04-02T05:01:20.208Z,1.34
2018-04-02T05:02:20.232Z,1.36
2018-04-02T05:03:20.258Z,1.41
2018-04-02T05:04:20.284Z,1.32
2018-04-02T05:05:20.308Z,1.37
2018-04-02T05:06:20.334Z,1.32
2018-04-02T05:07:20.357Z,1.30
2018-04-02T05:08:20.382Z,1.32
2018-04-02T05:09:20.413Z,1.29
2018-04-02T05:10:20.433Z,1.22
2018-04-02T05:11:20.465Z,1.23
2018-04-02T05:12:20.538Z,1.26
2018-04-02T05:13:20.508Z,1.29
2018-04-02T05:14:20.533Z,1.27
2018-04-02T05:15:20.556Z,1.30
2018-04-02T05:16:20.583Z,1.33
2018-04-02T05:17:20.607Z,1.36
2018-04-02T05:18:20.633Z,1.40
2018-04-02T05:19:20.656Z,1.34
2018-04-02T05:20:20.683Z,1.29
2018-04-02T05:21:20.712Z,1.30
2018-04-02T05:22:20.738Z,1.36
2018-04-02T05:23:20.757Z,1.34
2018-04-02T05:24:20.782Z,1.30
2018-04-02T05:25:20.806Z,1.36
2018-04-02T05:26:20.833Z,1.41
2018-04-02T05:27:20.857Z,1.36
2018-04-02T05:28:20.882Z,1.45
2018-04-02T05:29:20.909Z,1.37
2018-04-02T05:30:20.933Z,1.50
2018-04-02T05:31:20.959Z,1.44
2018-04-02T05:32:20.982Z,1.47
2018-04-02T05:33:21.007Z,1.44
2018-04-02T05:34:21.033Z,1.40
2018-04-02T05:35:21.057Z,1.41
2018-04-02T05:36:21.083Z,1.40
2018-04-02T05:37:21.110Z,1.44
2018-04-02T05:38:21.137Z,1.42
2018-04-02T05:39:21.157Z,1.41
2018-04-02T05:40:21.181Z,1.50
2018-04-02T05:41:21.209Z,1.45
2018-04-02T05:42:21.232Z,1.47
2018-04-02T05:43:21.256Z,1.58
2018-04-02T05:44:21.281Z,1.58
2018-04-02T05:45:21.308Z,1.63
2018-04-02T05:46:21.332Z,1.77
2018-04-02T05:47:21.358Z,1.80
2018-04-02T05:48:21.381Z,1.84
2018-04-02T05:49:21.407Z,1.91
2018-04-02T05:50:21.435Z,1.98
2018-04-02T05:51:21.458Z,1.91
2018-04-02T05:52:21.483Z,1.98
2018-04-02T05:53:21.508Z,1.90
2018-04-02T05:54:21.534Z,2.05
2018-04-02T05:55:21.560Z,2.14
2018-04-02T05:56:21.587Z,2.12
2018-04-02T05:57:21.609Z,2.27
2018-04-02T05:58:21.635Z,2.27
2018-04-02T05:59:21.662Z,2.23
2018-04-02T06:00:21.686Z,2.43
2018-04-02T06:01:21.711Z,2.48
2018-04-02T06:02:21.737Z,2.60
2018-04-02T06:03:21.761Z,2.61
2018-04-02T06:04:21.788Z,2.69
2018-04-02T06:05:21.814Z,2.71
2018-04-02T06:06:21.840Z,2.89
2018-04-02T06:07:21.865Z,2.99
2018-04-02T06:08:21.894Z,2.95
2018-04-02T06:09:21.916Z,2.95
2018-04-02T06:10:21.943Z,2.96
2018-04-02T06:11:21.971Z,3.06
2018-04-02T06:12:21.994Z,3.00
2018-04-02T06:13:22.021Z,3.13
2018-04-02T06:14:22.047Z,3.05
2018-04-02T06:15:22.072Z,2.93
2018-04-02T06:16:22.099Z,3.05
2018-04-02T06:17:22.125Z,2.97
2018-04-02T06:18:22.151Z,3.00
2018-04-02T06:19:22.179Z,3.05
2018-04-02T06:20:22.204Z,3.15
2018-04-02T06:21:22.231Z,2.92
2018-04-02T06:22:22.261Z,3.08
2018-04-02T06:23:22.284Z,3.05
2018-04-02T06:24:22.310Z,3.08
2018-04-02T06:25:22.336Z,3.05
2018-04-02T06:26:22.362Z,3.18
2018-04-02T06:27:22.386Z,3.14
2018-04-02T06:28:22.414Z,3.18
2018-04-02T06:29:22.440Z,3.32
2018-04-02T06:30:22.468Z,3.26
2018-04-02T06:31:22.496Z,3.23
2018-04-02T06:32:22.520Z,3.32
2018-04-02T06:33:22.546Z,3.26
2018-04-02T06:34:22.573Z,3.36
2018-04-02T06:35:22.599Z,3.17
2018-04-02T06:36:22.626Z,3.39
2018-04-02T06:37:22.653Z,3.35
2018-04-02T06:38:22.688Z,3.39
2018-04-02T06:39:22.705Z,3.51
2018-04-02T06:40:22.742Z,3.55
2018-04-02T06:41:22.759Z,3.58
2018-04-02T06:42:22.787Z,3.54
2018-04-02T06:43:22.812Z,3.52
2018-04-02T06:44:22.840Z,3.72
2018-04-02T06:45:22.865Z,3.73
2018-04-02T06:46:22.894Z,3.75
2018-04-02T06:47:22.919Z,3.80
2018-04-02T06:48:22.949Z,3.83
2018-04-02T06:49:22.973Z,3.88
2018-04-02T06:50:23.007Z,3.97
2018-04-02T06:51:23.027Z,4.02
2018-04-02T06:52:23.054Z,4.09
2018-04-02T06:53:23.082Z,4.29
2018-04-02T06:54:23.109Z,4.30
2018-04-02T06:55:23.138Z,4.32
2018-04-02T06:56:23.163Z,4.22
2018-04-02T06:57:23.190Z,4.37
2018-04-02T06:58:23.218Z,4.30
2018-04-02T06:59:23.245Z,4.27
2018-04-02T07:00:23.274Z,4.34
2018-04-02T07:01:23.300Z,4.29
2018-04-02T07:02:23.328Z,4.27
2018-04-02T07:03:23.354Z,4.42
2018-04-02T07:04:23.381Z,4.45
2018-04-02T07:05:23.409Z,4.33
2018-04-02T07:06:23.437Z,4.29
2018-04-02T07:07:23.463Z,4.36
2018-04-02T07:08:23.491Z,4.33
2018-04-02T07:09:23.518Z,4.32
2018-04-02T07:10:23.546Z,4.47
2018-04-02T07:11:23.575Z,4.51
2018-04-02T07:12:23.602Z,4.67
2018-04-02T07:13:23.630Z,4.67
2018-04-02T07:14:23.657Z,4.82
2018-04-02T07:15:23.684Z,4.99
2018-04-02T07:16:23.712Z,5.22
2018-04-02T07:17:23.804Z,5.42
2018-04-02T07:18:23.768Z,5.48
2018-04-02T07:19:23.796Z,5.54
2018-04-02T07:20:23.826Z,5.65
2018-04-02T07:21:23.852Z,5.81
2018-04-02T07:22:23.881Z,5.79
2018-04-02T07:23:23.908Z,5.99
2018-04-02T07:24:23.937Z,6.06
2018-04-02T07:25:23.967Z,5.99
2018-04-02T07:26:23.994Z,5.97
2018-04-02T07:27:24.024Z,5.93
2018-04-02T07:28:24.050Z,6.01
2018-04-02T07:29:24.084Z,6.06
2018-04-02T07:30:24.107Z,6.04
2018-04-02T07:31:24.136Z,6.04
2018-04-02T07:32:24.165Z,6.12
2018-04-02T07:33:24.194Z,6.12
2018-04-02T07:34:24.223Z,6.27
2018-04-02T07:35:24.251Z,6.25
2018-04-02T07:36:24.280Z,6.46
2018-04-02T07:37:24.348Z,6.58
2018-04-02T07:38:24.337Z,6.67
2018-04-02T07:39:24.367Z,6.73
2018-04-02T07:40:24.396Z,6.80
2018-04-02T07:41:24.425Z,6.59
2018-04-02T07:42:24.456Z,6.71
2018-04-02T07:43:24.484Z,6.67
2018-04-02T07:44:24.539Z,6.73
2018-04-02T07:45:24.540Z,6.73
2018-04-02T07:46:24.569Z,6.55
2018-04-02T07:47:24.597Z,6.43
2018-04-02T07:48:24.627Z,6.58
2018-04-02T07:49:24.657Z,6.67
2018-04-02T07:50:24.688Z,6.71
2018-04-02T07:51:24.715Z,6.71
2018-04-02T07:52:24.744Z,6.71
2018-04-02T07:53:24.782Z,6.55
2018-04-02T07:54:24.803Z,6.85
2018-04-02T07:55:24.837Z,6.71
2018-04-02T07:56:24.862Z,6.79
2018-04-02T07:57:24.892Z,6.92
2018-04-02T07:58:24.922Z,7.02
2018-04-02T07:59:24.951Z,7.28
2018-04-02T08:00:24.981Z,7.34
2018-04-02T08:01:25.011Z,7.61
2018-04-02T08:02:25.041Z,7.64
2018-04-02T08:03:25.076Z,7.90
2018-04-02T08:04:25.100Z,7.98
2018-04-02T08:05:25.131Z,8.02
2018-04-02T08:06:25.161Z,8.15
2018-04-02T08:07:25.191Z,8.20
2018-04-02T08:08:25.222Z,8.08
2018-04-02T08:09:25.316Z,8.16
2018-04-02T08:10:25.284Z,8.15
2018-04-02T08:11:25.315Z,8.25
2018-04-02T08:12:25.343Z,8.12
2018-04-02T08:13:25.373Z,8.30
2018-04-02T08:14:25.410Z,8.43
2018-04-02T08:15:25.435Z,8.47
2018-04-02T08:16:25.466Z,8.62
2018-04-02T08:17:25.497Z,8.73
2018-04-02T08:18:25.529Z,8.81
2018-04-02T08:19:25.558Z,8.94
2018-04-02T08:20:25.590Z,9.08
2018-04-02T08:21:25.620Z,9.10
2018-04-02T08:22:25.652Z,9.29
2018-04-02T08:23:25.683Z,9.42
2018-04-02T08:24:25.718Z,9.54
2018-04-02T08:25:25.790Z,9.74
2018-04-02T08:26:25.777Z,9.83
2018-04-02T08:27:25.808Z,10.02
2018-04-02T08:28:25.841Z,10.08
2018-04-02T08:29:25.871Z,10.12
2018-04-02T08:30:25.902Z,10.09
2018-04-02T08:31:25.933Z,10.05
2018-04-02T08:32:25.968Z,10.18
2018-04-02T08:33:25.998Z,10.29
2018-04-02T08:34:26.030Z,10.36
2018-04-02T08:35:26.061Z,10.53
2018-04-02T08:36:26.129Z,10.52
2018-04-02T08:37:26.126Z,10.60
2018-04-02T08:38:26.157Z,10.52
2018-04-02T08:39:26.192Z,10.71
2018-04-02T08:40:26.221Z,10.89
2018-04-02T08:41:26.252Z,10.96
2018-04-02T08:42:26.285Z,10.81
2018-04-02T08:43:26.317Z,10.70
2018-04-02T08:44:26.349Z,10.38
2018-04-02T08:45:26.382Z,10.45
2018-04-02T08:46:26.415Z,10.38
2018-04-02T08:47:26.448Z,10.78
2018-04-02T08:48:26.485Z,11.00
2018-04-02T08:49:26.513Z,11.44
2018-04-02T08:50:26.546Z,11.90
2018-04-02T08:51:26.590Z,12.19
2018-04-02T08:52:26.612Z,12.37
2018-04-02T08:53:26.645Z,12.71
2018-04-02T08:54:26.682Z,12.83
2018-04-02T08:55:26.712Z,12.56
2018-04-02T08:56:26.748Z,12.75
2018-04-02T08:57:26.780Z,12.92
2018-04-02T08:58:26.814Z,12.97
2018-04-02T08:59:26.847Z,13.10
2018-04-02T09:00:26.882Z,13.01
2018-04-02T09:01:26.915Z,13.15
2018-04-02T09:02:26.950Z,13.36
2018-04-02T09:03:26.984Z,13.59
2018-04-02T09:04:27.022Z,13.71
2018-04-02T09:05:27.052Z,13.75
2018-04-02T09:06:27.087Z,13.87
2018-04-02T09:07:27.121Z,13.97
2018-04-02T09:08:27.156Z,14.22
2018-04-02T09:09:27.191Z,14.77
2018-04-02T09:10:27.226Z,15.36
2018-04-02T09:11:27.261Z,15.47
2018-04-02T09:12:27.297Z,16.23
2018-04-02T09:13:27.333Z,17.56
2018-04-02T09:14:27.369Z,18.54
2018-04-02T09:15:27.406Z,19.56
2018-04-02T09:16:27.442Z,19.55
2018-04-02T09:17:27.478Z,20.14
2018-04-02T09:18:27.517Z,20.08
2018-04-02T09:19:27.554Z,20.28
2018-04-02T09:20:27.591Z,20.10
2018-04-02T09:21:27.630Z,19.88
2018-04-02T09:22:27.671Z,20.16
2018-04-02T09:23:27.707Z,19.77
2018-04-02T09:24:27.746Z,19.16
2018-04-02T09:25:27.786Z,18.76
2018-04-02T09:26:27.826Z,18.58
2018-04-02T09:27:27.864Z,18.55
2018-04-02T09:28:27.903Z,17.95
2018-04-02T09:29:27.944Z,17.55
2018-04-02T09:30:27.982Z,17.49
2018-04-02T09:31:28.022Z,17.49
2018-04-02T09:32:28.061Z,17.59
2018-04-02T09:33:28.101Z,17.58
2018-04-02T09:34:28.144Z,17.11
2018-04-02T09:35:28.226Z,17.95
2018-04-02T09:36:28.221Z,18.37
2018-04-02T09:37:28.258Z,18.36
2018-04-02T09:38:28.300Z,18.21
2018-04-02T09:39:28.340Z,18.73
2018-04-02T09:40:28.381Z,19.25
2018-04-02T09:41:28.420Z,19.84
2018-04-02T09:42:28.460Z,19.73
2018-04-02T09:43:28.501Z,19.44
2018-04-02T09:44:28.541Z,19.68
2018-04-02T09:45:28.584Z,20.23
2018-04-02T09:46:28.624Z,21.01
2018-04-02T09:47:28.664Z,21.01
2018-04-02T09:48:28.707Z,20.79
2018-04-02T09:49:28.749Z,20.64
2018-04-02T09:50:28.792Z,21.38
2018-04-02T09:51:28.832Z,22.12
2018-04-02T09:52:28.874Z,22.64
2018-04-02T09:53:28.917Z,22.70
2018-04-02T09:54:28.964Z,21.84
2018-04-02T09:55:29.003Z,22.24
2018-04-02T09:56:29.046Z,22.58
2018-04-02T09:57:29.090Z,22.67
2018-04-02T09:58:29.133Z,22.40
2018-04-02T09:59:29.185Z,21.67
2018-04-02T10:00:29.220Z,21.14
2018-04-02T10:01:29.262Z,21.13
2018-04-02T10:02:29.306Z,21.31
2018-04-02T10:03:29.348Z,21.17
2018-04-02T10:04:29.433Z,20.06
2018-04-02T10:05:29.437Z,20.38
2018-04-02T10:06:29.480Z,20.91
2018-04-02T10:07:29.524Z,20.77
2018-04-02T10:08:29.573Z,21.72
2018-04-02T10:09:29.611Z,22.30
2018-04-02T10:10:29.750Z,22.94
2018-04-02T10:11:29.699Z,22.77
2018-04-02T10:12:29.743Z,21.56
2018-04-02T10:13:29.788Z,21.64
2018-04-02T10:14:29.833Z,22.61
2018-04-02T10:15:29.956Z,23.38
2018-04-02T10:16:29.922Z,23.90
2018-04-02T10:17:29.967Z,24.13
2018-04-02T10:18:30.012Z,24.95
2018-04-02T10:19:30.058Z,25.70
2018-04-02T10:20:30.104Z,25.87
2018-04-02T10:21:30.151Z,26.35
2018-04-02T10:22:30.197Z,27.34
2018-04-02T10:23:30.242Z,27.44
2018-04-02T10:24:30.289Z,28.19
2018-04-02T10:25:30.336Z,28.07
2018-04-02T10:26:30.384Z,27.50
2018-04-02T10:27:30.430Z,26.02
2018-04-02T10:28:30.479Z,26.37
2018-04-02T10:29:30.526Z,26.82
2018-04-02T10:30:30.575Z,27.36
2018-04-02T10:31:30.624Z,27.85
2018-04-02T10:32:30.672Z,28.73
2018-04-02T10:33:30.721Z,28.46
2018-04-02T10:34:30.770Z,28.61
2018-04-02T10:35:30.822Z,28.55
2018-04-02T10:36:30.867Z,28.40
2018-04-02T10:37:30.916Z,28.74
2018-04-02T10:38:30.965Z,28.03
2018-04-02T10:39:31.015Z,28.52
2018-04-02T10:40:31.065Z,28.74
2018-04-02T10:41:31.115Z,28.71
2018-04-02T10:42:31.165Z,28.93
2018-04-02T10:43:31.212Z,29.23
2018-04-02T10:44:31.264Z,29.41
2018-04-02T10:45:31.313Z,28.77
2018-04-02T10:46:31.364Z,28.73
2018-04-02T10:47:31.414Z,27.43
2018-04-02T10:48:31.494Z,27.87
2018-04-02T10:49:31.514Z,27.87
2018-04-02T10:50:31.564Z,28.12
2018-04-02T10:51:31.613Z,27.18
2018-04-02T10:52:31.665Z,27.67
2018-04-02T10:53:31.717Z,27.97
2018-04-02T10:54:31.765Z,27.67
2018-04-02T10:55:31.815Z,27.74
2018-04-02T10:56:31.864Z,28.15
2018-04-02T10:57:31.916Z,28.52
2018-04-02T10:58:31.965Z,28.31
2018-04-02T10:59:32.016Z,29.18
2018-04-02T11:00:32.066Z,29.71
2018-04-02T11:01:32.115Z,30.00
2018-04-02T11:02:32.165Z,29.18
2018-04-02T11:03:32.214Z,29.55
2018-04-02T11:04:32.266Z,29.58
2018-04-02T11:05:32.317Z,29.68
2018-04-02T11:06:32.366Z,30.43
2018-04-02T11:07:32.416Z,30.69
2018-04-02T11:08:32.466Z,30.53
2018-04-02T11:09:32.517Z,30.24
2018-04-02T11:10:32.567Z,30.39
2018-04-02T11:11:32.617Z,29.95
2018-04-02T11:12:32.713Z,28.92
2018-04-02T11:13:32.718Z,28.62
2018-04-02T11:14:32.769Z,28.30
2018-04-02T11:15:32.819Z,27.39
2018-04-02T11:16:32.869Z,28.25
2018-04-02T11:17:32.920Z,28.70
2018-04-02T11:18:32.981Z,28.93
2018-04-02T11:19:33.019Z,28.46
2018-04-02T11:20:33.070Z,27.40
2018-04-02T11:21:33.121Z,28.18
2018-04-02T11:22:33.170Z,27.70
2018-04-02T11:23:33.220Z,26.50
2018-04-02T11:24:33.269Z,26.39
2018-04-02T11:25:33.320Z,25.97
2018-04-02T11:26:33.371Z,26.69
2018-04-02T11:27:33.420Z,26.52
2018-04-02T11:28:33.470Z,26.40
2018-04-02T11:29:33.521Z,26.54
2018-04-02T11:30:33.571Z,26.35
2018-04-02T11:31:33.630Z,25.75
2018-04-02T11:32:33.671Z,25.08
2018-04-02T11:33:33.721Z,24.76
2018-04-02T11:34:33.771Z,24.69
2018-04-02T11:35:33.819Z,24.37
2018-04-02T11:36:33.871Z,24.13
2018-04-02T11:37:33.918Z,24.09
2018-04-02T11:38:33.968Z,23.91
2018-04-02T11:39:34.016Z,23.91
2018-04-02T11:40:34.062Z,24.20
2018-04-02T11:41:34.106Z,23.84
2018-04-02T11:42:34.154Z,23.47
2018-04-02T11:43:34.203Z,23.88
2018-04-02T11:44:34.248Z,24.15
2018-04-02T11:45:34.295Z,23.73
2018-04-02T11:46:34.341Z,23.73
2018-04-02T11:47:34.387Z,22.95
2018-04-02T11:48:34.433Z,23.13
2018-04-02T11:49:34.480Z,22.60
2018-04-02T11:50:34.524Z,22.88
2018-04-02T11:51:34.571Z,22.30
2018-04-02T11:52:34.616Z,21.74
2018-04-02T11:53:34.663Z,21.83
2018-04-02T11:54:34.708Z,21.40
2018-04-02T11:55:34.752Z,21.28
2018-04-02T11:56:34.798Z,21.50
2018-04-02T11:57:34.844Z,21.22
2018-04-02T11:58:34.890Z,19.99
2018-04-02T11:59:34.934Z,20.03
2018-04-02T12:00:34.978Z,19.99
2018-04-02T12:01:35.023Z,19.99
2018-04-02T12:02:35.067Z,20.14
2018-04-02T12:03:35.110Z,20.32
2018-04-02T12:04:35.155Z,20.24
2018-04-02T12:05:35.203Z,20.69
2018-04-02T12:06:35.243Z,20.38
2018-04-02T12:07:35.286Z,20.57
2018-04-02T12:08:35.329Z,20.64
2018-04-02T12:09:35.404Z,20.92
2018-04-02T12:10:35.418Z,20.79
2018-04-02T12:11:35.460Z,20.48
2018-04-02T12:12:35.504Z,20.33
2018-04-02T12:13:35.549Z,21.06
2018-04-02T12:14:35.592Z,19.98
2018-04-02T12:15:35.634Z,19.98
2018-04-02T12:16:35.678Z,19.55
2018-04-02T12:17:35.722Z,20.10
2018-04-02T12:18:35.766Z,20.33
2018-04-02T12:19:35.808Z,20.32
2018-04-02T12:20:35.853Z,19.87
2018-04-02T12:21:35.896Z,19.99
2018-04-02T12:22:35.939Z,20.02
2018-04-02T12:23:35.981Z,19.83
2018-04-02T12:24:36.024Z,20.33
2018-04-02T12:25:36.067Z,20.95
2018-04-02T12:26:36.117Z,21.12
2018-04-02T12:27:36.153Z,21.42
2018-04-02T12:28:36.200Z,21.17
2018-04-02T12:29:36.240Z,20.88
2018-04-02T12:30:36.283Z,21.21
2018-04-02T12:31:36.325Z,21.35
2018-04-02T12:32:36.368Z,21.09
2018-04-02T12:33:36.435Z,21.19
2018-04-02T12:34:36.455Z,21.22
2018-04-02T12:35:36.498Z,20.91
2018-04-02T12:36:36.541Z,20.85
2018-04-02T12:37:36.584Z,20.98
2018-04-02T12:38:36.634Z,21.31
2018-04-02T12:39:36.672Z,21.59
2018-04-02T12:40:36.713Z,21.84
2018-04-02T12:41:36.757Z,21.69
2018-04-02T12:42:36.800Z,21.04
2018-04-02T12:43:36.842Z,20.79
2018-04-02T12:44:36.886Z,20.89
2018-04-02T12:45:36.930Z,21.28
2018-04-02T12:46:36.973Z,21.68
2018-04-02T12:47:37.016Z,22.14
2018-04-02T12:48:37.059Z,22.62
2018-04-02T12:49:37.104Z,22.25
2018-04-02T12:50:37.148Z,22.80
2018-04-02T12:51:37.190Z,22.36
2018-04-02T12:52:37.234Z,22.27
2018-04-02T12:53:37.290Z,21.68
2018-04-02T12:54:37.321Z,21.47
2018-04-02T12:55:37.365Z,21.34
2018-04-02T12:56:37.409Z,20.91
2018-04-02T12:57:37.452Z,19.95
2018-04-02T12:58:37.497Z,19.83
2018-04-02T12:59:37.540Z,19.98
2018-04-02T13:00:37.583Z,20.02
2018-04-02T13:01:37.627Z,19.94
2018-04-02T13:02:37.671Z,20.08
2018-04-02T13:03:37.713Z,19.69
2018-04-02T13:04:37.764Z,19.95
2018-04-02T13:05:37.798Z,20.67
2018-04-02T13:06:37.843Z,20.66
2018-04-02T13:07:37.883Z,20.31
2018-04-02T13:08:37.926Z,20.23
2018-04-02T13:09:37.970Z,20.50